• Join FlightAware (Why Join?)
  • Login
  • US Flag 
11:54AM EST


 

Airport Tracker/Info


-or-


 

Live Flight TrackerFlight Track Log ✈ N92FC ✈ 27-Jul-2013 ✈ KDTS - KHXD

Flight Track Log - Related Links

Times and Time Zones

All times are in EDT time to prevent confusion due to time zone crossing. See the N92FC flight status page for this flight to view local times or setup timezone preferences in your user account.

Time Position Orientation Groundspeed Altitude Reporting Facility
EDT Latitude Longitude Course Direction KTS MPH feet Rate Location/Type
12:30PM 30.7292 -86.6313 337° Northwest  Level FlightAware Approximate
12:31PM 30.7478 -86.5646 72° East  Level Estimated
12:32PM 30.7665 -86.4974 72° East  Level Estimated
12:33PM 30.7852 -86.4302 72° East  Level Estimated
12:34PM 30.8038 -86.3629 72° East  Level Estimated
12:35PM 30.8224 -86.2956 72° East  Level Estimated
12:36PM 30.8410 -86.2283 72° East  Level Estimated
12:37PM 30.8595 -86.1609 72° East  Level Estimated
12:38PM 30.8780 -86.0936 72° East  Level Estimated
12:39PM 30.8964 -86.0262 72° East  Level Estimated
12:39PM 30.5283 -85.7697 72° East 205 236 18,200  Level Jacksonville Center
12:40PM 30.9149 -85.9588 72° East  Level Estimated
12:40PM 30.5486 -85.7122 68° East 210 242 19,000  Level Jacksonville Center
12:41PM 30.9333 -85.8913 72° East  Level Estimated
12:41PM 30.5686 -85.6453 71° East 229 264 19,400  Level Jacksonville Center
12:42PM 30.9516 -85.8239 72° East  Level Estimated
12:42PM 30.5953 -85.5808 64° Northeast 229 264 20,100  Level Jacksonville Center
12:43PM 30.9699 -85.7564 72° East  Level Estimated
12:43PM 30.6175 -85.5164 68° East 229 264 20,700  Level Jacksonville Center
12:44PM 30.9882 -85.6889 72° East  Level Estimated
12:44PM 30.6397 -85.4519 68° East 224 258 21,000  Level Jacksonville Center
12:45PM 31.0065 -85.6213 72° East  Level Estimated
12:45PM 30.6661 -85.3825 66° East 219 252 21,000  Level Jacksonville Center
12:46PM 30.6883 -85.3106 70° East 229 264 21,000  Level Jacksonville Center
12:47PM 30.7147 -85.2414 66° East 234 269 21,000  Level Jacksonville Center
12:48PM 30.7472 -85.1719 61° Northeast 234 269 21,000  Level Jacksonville Center
12:49PM 30.7858 -85.1075 55° Northeast 234 269 21,000  Level Jacksonville Center
12:50PM 30.8267 -85.0456 52° Northeast 234 269 21,000  Level Jacksonville Center
12:51PM 30.8694 -84.9861 50° Northeast 234 269 21,000  Level Jacksonville Center
12:52PM 30.9081 -84.9239 54° Northeast 240 276 21,000  Level Jacksonville Center
12:53PM 30.9506 -84.8644 50° Northeast 240 276 21,000  Level Jacksonville Center
12:54PM 30.9933 -84.7997 52° Northeast 240 276 21,000  Level Jacksonville Center
12:55PM 31.0319 -84.7375 54° Northeast 240 276 21,000  Level Jacksonville Center
12:56PM 31.0703 -84.6753 54° Northeast 240 276 21,000  Level Jacksonville Center
12:57PM 31.1089 -84.6106 55° Northeast 240 276 21,000  Level Jacksonville Center
12:58PM 31.1392 -84.5383 64° Northeast 240 276 21,000  Level Jacksonville Center
12:59PM 31.1631 -84.4658 69° East 240 276 21,000  Level Jacksonville Center
01:00PM 31.1847 -84.3908 71° East 240 276 21,000  Level Jacksonville Center
01:01PM 31.2086 -84.3136 70° East 240 276 21,000  Level Jacksonville Center
01:02PM 31.2303 -84.2386 71° East 240 276 21,000  Level Jacksonville Center
01:03PM 31.2433 -84.1925 72° East 244 281 21,000  Level Jacksonville Center
01:04PM 31.2692 -84.1225 67° East 244 281 21,000  Level Jacksonville Center
01:05PM 31.2886 -84.0472 73° East 246 283 21,000  Level Jacksonville Center
01:06PM 31.3100 -83.9697 72° East 245 282 21,000  Level Jacksonville Center
01:07PM 31.3317 -83.8969 71° East 247 284 21,000  Level Jacksonville Center
01:08PM 31.3572 -83.8072 72° East 251 289 21,000  Level Jacksonville Center
01:09PM 31.3850 -83.7175 70° East 245 282 21,000  Level Jacksonville Center
01:10PM 31.4000 -83.6642 72° East 250 288 21,000  Level Jacksonville Center
01:11PM 31.4214 -83.5914 71° East 250 288 21,000  Level Jacksonville Center
01:12PM 31.4511 -83.4892 71° East 270 311 21,000  Level Jacksonville Center
01:13PM 31.4744 -83.4114 71° East 263 303 21,000  Level Jacksonville Center
01:14PM 31.5103 -83.3433 58° Northeast 250 288 21,000  Level Jacksonville Center
01:15PM 31.5439 -83.2753 60° Northeast 240 276 21,000  Level Jacksonville Center
01:16PM 31.5775 -83.2022 62° Northeast 240 276 21,000  Level Jacksonville Center
01:17PM 31.6067 -83.1317 64° Northeast 240 276 21,000  Level Jacksonville Center
01:18PM 31.6381 -83.0608 62° Northeast 240 276 21,000  Level Jacksonville Center
01:19PM 31.6739 -82.9928 58° Northeast 240 276 21,000  Level Jacksonville Center
01:20PM 31.7072 -82.9219 61° Northeast 240 276 21,000 -420 Level Jacksonville Center
01:21PM 31.7406 -82.8461 63° Northeast 246 283 20,200 -840 Descending Jacksonville Center
01:22PM 31.7864 -82.7728 54° Northeast 257 296 19,400 -780 Descending Jacksonville Center
01:23PM 31.8364 -82.6994 51° Northeast 269 310 18,700 -780 Descending Jacksonville Center
01:24PM 31.8864 -82.6258 51° Northeast 274 315 17,900 -780 Descending Jacksonville Center
01:25PM 31.9364 -82.5522 51° Northeast 279 321 17,200 -540 Descending Jacksonville Center
01:26PM 31.9842 -82.4811 52° Northeast 279 321 16,900 -180 Descending Jacksonville Center
01:27PM 32.0278 -82.4097 54° Northeast 274 315 16,900  Level Jacksonville Center
01:28PM 32.0525 -82.3336 69° East 259 298 16,900  Level Jacksonville Center
01:29PM 32.0667 -82.2528 78° East 247 284 16,900  Level Jacksonville Center
01:30PM 32.0831 -82.1644 78° East 247 284 16,900  Level Jacksonville Center
01:31PM 32.0972 -82.0833 78° East 247 284 16,900  Level Jacksonville Center
01:32PM 32.1114 -82.0119 77° East 247 284 16,900  Level Jacksonville Center
01:33PM 32.1272 -81.9211 78° East 247 284 16,900  Level Jacksonville Center
01:34PM 32.1414 -81.8475 77° East 252 290 16,900 -360 Level Jacksonville Center
01:35PM 32.1508 -81.7539 83° East 258 297 16,200 -960 Descending Jacksonville Center
01:36PM 32.1628 -81.6631 81° East 271 312 15,000 -1,260 Descending Jacksonville Center
01:37PM 32.1722 -81.5819 82° East 281 323 13,700 -1,440 Descending Jacksonville Center
01:38PM 32.1858 -81.4811 81° East 275 316 12,200 -1,440 Descending Jacksonville Center
01:39PM 32.1994 -81.3925 80° East 275 316 10,900 -1,260 Descending Jacksonville Center
01:40PM 32.2194 -81.3186 72° East 275 316 9,700 -1,440 Descending Jacksonville Center
01:41PM 32.2433 -81.2247 73° East 265 305 8,100 -1,500 Descending Jacksonville Center
01:42PM 32.2589 -81.1408 78° East 258 297 6,800 -1,320 Descending Jacksonville Center